sensor_id;sensor_type;location;lat;lon;timestamp;temperature;humidity
21123;DHT22;10719;48.130;11.630;2023-02-24T00:00:55;5.30;99.90
21123;DHT22;10719;48.130;11.630;2023-02-24T00:03:21;5.40;99.90
21123;DHT22;10719;48.130;11.630;2023-02-24T00:05:46;5.30;99.90
21123;DHT22;10719;48.130;11.630;2023-02-24T00:08:14;5.30;99.90
21123;DHT22;10719;48.130;11.630;2023-02-24T00:10:40;5.30;99.90
21123;DHT22;10719;48.130;11.630;2023-02-24T00:13:06;5.30;99.90
21123;DHT22;10719;48.130;11.630;2023-02-24T00:15:32;5.30;99.90
21123;DHT22;10719;48.130;11.630;2023-02-24T00:17:57;5.40;99.90
21123;DHT22;10719;48.130;11.630;2023-02-24T00:20:23;5.40;99.90
21123;DHT22;10719;48.130;11.630;2023-02-24T00:22:49;5.40;99.90
21123;DHT22;10719;48.130;11.630;2023-02-24T00:25:15;5.30;99.90
21123;DHT22;10719;48.130;11.630;2023-02-24T00:27:40;5.20;99.90
21123;DHT22;10719;48.130;11.630;2023-02-24T00:30:07;5.10;99.90
21123;DHT22;10719;48.130;11.630;2023-02-24T00:32:35;5.10;99.90
21123;DHT22;10719;48.130;11.630;2023-02-24T00:35:01;5.00;99.90
21123;DHT22;10719;48.130;11.630;2023-02-24T00:37:27;4.80;99.90
21123;DHT22;10719;48.130;11.630;2023-02-24T00:39:53;4.80;99.90
21123;DHT22;10719;48.130;11.630;2023-02-24T00:42:23;4.70;99.90
21123;DHT22;10719;48.130;11.630;2023-02-24T00:44:48;4.70;99.90
21123;DHT22;10719;48.130;11.630;2023-02-24T00:47:15;4.70;99.90
21123;DHT22;10719;48.130;11.630;2023-02-24T00:49:42;4.70;99.90
21123;DHT22;10719;48.130;11.630;2023-02-24T00:52:10;4.60;99.90
21123;DHT22;10719;48.130;11.630;2023-02-24T00:54:38;4.60;99.90
21123;DHT22;10719;48.130;11.630;2023-02-24T00:57:04;4.60;99.90
21123;DHT22;10719;48.130;11.630;2023-02-24T00:59:33;4.50;99.90
21123;DHT22;10719;48.130;11.630;2023-02-24T01:01:59;4.50;99.90
21123;DHT22;10719;48.130;11.630;2023-02-24T01:04:24;4.40;99.90
21123;DHT22;10719;48.130;11.630;2023-02-24T01:06:53;4.40;99.90
21123;DHT22;10719;48.130;11.630;2023-02-24T01:09:25;4.30;99.90
21123;DHT22;10719;48.130;11.630;2023-02-24T01:11:52;4.30;99.90
21123;DHT22;10719;48.130;11.630;2023-02-24T01:14:37;4.30;99.90
21123;DHT22;10719;48.130;11.630;2023-02-24T01:17:04;4.30;99.90
21123;DHT22;10719;48.130;11.630;2023-02-24T01:19:31;4.20;99.90
21123;DHT22;10719;48.130;11.630;2023-02-24T01:22:02;4.20;99.90
21123;DHT22;10719;48.130;11.630;2023-02-24T01:24:31;4.20;99.90
21123;DHT22;10719;48.130;11.630;2023-02-24T01:26:57;4.10;99.90
21123;DHT22;10719;48.130;11.630;2023-02-24T01:29:23;4.20;99.90
21123;DHT22;10719;48.130;11.630;2023-02-24T01:31:50;4.20;99.90
21123;DHT22;10719;48.130;11.630;2023-02-24T01:34:17;4.20;99.90
21123;DHT22;10719;48.130;11.630;2023-02-24T01:36:43;4.30;99.90
21123;DHT22;10719;48.130;11.630;2023-02-24T01:39:11;4.30;99.90
21123;DHT22;10719;48.130;11.630;2023-02-24T01:41:43;4.30;99.90
21123;DHT22;10719;48.130;11.630;2023-02-24T01:46:46;4.30;99.90
21123;DHT22;10719;48.130;11.630;2023-02-24T01:49:22;4.40;99.90
21123;DHT22;10719;48.130;11.630;2023-02-24T01:51:53;4.40;99.90
21123;DHT22;10719;48.130;11.630;2023-02-24T01:54:25;4.50;99.90
21123;DHT22;10719;48.130;11.630;2023-02-24T01:56:54;4.50;99.90
21123;DHT22;10719;48.130;11.630;2023-02-24T01:59:22;4.50;99.90
21123;DHT22;10719;48.130;11.630;2023-02-24T02:01:49;4.40;99.90
21123;DHT22;10719;48.130;11.630;2023-02-24T02:04:30;4.40;99.90
21123;DHT22;10719;48.130;11.630;2023-02-24T02:06:59;4.30;99.90
21123;DHT22;10719;48.130;11.630;2023-02-24T02:09:26;4.30;99.90
21123;DHT22;10719;48.130;11.630;2023-02-24T02:11:52;4.30;99.90
21123;DHT22;10719;48.130;11.630;2023-02-24T02:14:20;4.20;99.90
21123;DHT22;10719;48.130;11.630;2023-02-24T02:17:07;4.20;99.90
21123;DHT22;10719;48.130;11.630;2023-02-24T02:19:54;4.10;99.90
21123;DHT22;10719;48.130;11.630;2023-02-24T02:28:24;3.90;99.90
21123;DHT22;10719;48.130;11.630;2023-02-24T02:37:02;3.90;99.90
21123;DHT22;10719;48.130;11.630;2023-02-24T02:40:02;3.80;99.90
21123;DHT22;10719;48.130;11.630;2023-02-24T02:43:00;3.80;99.90
21123;DHT22;10719;48.130;11.630;2023-02-24T02:48:30;3.80;99.90
21123;DHT22;10719;48.130;11.630;2023-02-24T02:51:09;3.70;99.90
21123;DHT22;10719;48.130;11.630;2023-02-24T02:54:00;3.70;99.90
21123;DHT22;10719;48.130;11.630;2023-02-24T02:56:32;3.70;99.90
21123;DHT22;10719;48.130;11.630;2023-02-24T02:58:59;3.70;99.90
21123;DHT22;10719;48.130;11.630;2023-02-24T03:01:31;3.70;99.90
21123;DHT22;10719;48.130;11.630;2023-02-24T03:04:02;3.70;99.90
21123;DHT22;10719;48.130;11.630;2023-02-24T03:06:56;3.60;99.90
21123;DHT22;10719;48.130;11.630;2023-02-24T03:09:25;3.60;99.90
21123;DHT22;10719;48.130;11.630;2023-02-24T03:11:57;3.60;99.90
21123;DHT22;10719;48.130;11.630;2023-02-24T03:14:37;3.60;99.90
21123;DHT22;10719;48.130;11.630;2023-02-24T03:17:07;3.60;99.90
21123;DHT22;10719;48.130;11.630;2023-02-24T03:19:36;3.60;99.90
21123;DHT22;10719;48.130;11.630;2023-02-24T03:22:10;3.70;99.90
21123;DHT22;10719;48.130;11.630;2023-02-24T03:24:38;3.70;99.90
21123;DHT22;10719;48.130;11.630;2023-02-24T03:30:01;3.60;99.90
21123;DHT22;10719;48.130;11.630;2023-02-24T03:32:28;3.60;99.90
21123;DHT22;10719;48.130;11.630;2023-02-24T03:35:06;3.60;99.90
21123;DHT22;10719;48.130;11.630;2023-02-24T03:37:35;3.50;99.90
21123;DHT22;10719;48.130;11.630;2023-02-24T03:40:06;3.50;99.90
21123;DHT22;10719;48.130;11.630;2023-02-24T03:42:38;3.50;99.90
21123;DHT22;10719;48.130;11.630;2023-02-24T03:45:05;3.50;99.90
21123;DHT22;10719;48.130;11.630;2023-02-24T03:47:32;3.50;99.90
21123;DHT22;10719;48.130;11.630;2023-02-24T03:49:58;3.40;99.90
21123;DHT22;10719;48.130;11.630;2023-02-24T04:09:22;3.30;99.90
21123;DHT22;10719;48.130;11.630;2023-02-24T04:11:58;3.40;99.90
21123;DHT22;10719;48.130;11.630;2023-02-24T04:19:28;3.30;99.90
21123;DHT22;10719;48.130;11.630;2023-02-24T04:21:56;3.30;99.90
21123;DHT22;10719;48.130;11.630;2023-02-24T04:24:26;3.30;99.90
21123;DHT22;10719;48.130;11.630;2023-02-24T04:26:56;3.30;99.90
21123;DHT22;10719;48.130;11.630;2023-02-24T04:29:24;3.30;99.90
21123;DHT22;10719;48.130;11.630;2023-02-24T04:31:58;3.30;99.90
21123;DHT22;10719;48.130;11.630;2023-02-24T04:34:25;3.30;99.90
21123;DHT22;10719;48.130;11.630;2023-02-24T04:36:53;3.30;99.90
21123;DHT22;10719;48.130;11.630;2023-02-24T04:39:20;3.30;99.90
21123;DHT22;10719;48.130;11.630;2023-02-24T04:41:48;3.30;99.90
21123;DHT22;10719;48.130;11.630;2023-02-24T04:44:15;3.30;99.90
21123;DHT22;10719;48.130;11.630;2023-02-24T04:46:42;3.30;99.90
21123;DHT22;10719;48.130;11.630;2023-02-24T04:49:08;3.30;99.90
21123;DHT22;10719;48.130;11.630;2023-02-24T04:51:35;3.40;99.90
21123;DHT22;10719;48.130;11.630;2023-02-24T04:54:01;3.40;99.90
21123;DHT22;10719;48.130;11.630;2023-02-24T04:56:28;3.50;99.90
21123;DHT22;10719;48.130;11.630;2023-02-24T04:58:54;3.50;99.90
21123;DHT22;10719;48.130;11.630;2023-02-24T05:01:20;3.50;99.90
21123;DHT22;10719;48.130;11.630;2023-02-24T05:03:45;3.50;99.90
21123;DHT22;10719;48.130;11.630;2023-02-24T05:06:16;3.50;99.90
21123;DHT22;10719;48.130;11.630;2023-02-24T05:08:42;3.60;99.90
21123;DHT22;10719;48.130;11.630;2023-02-24T05:11:15;3.70;99.90
21123;DHT22;10719;48.130;11.630;2023-02-24T05:13:41;3.70;99.90
21123;DHT22;10719;48.130;11.630;2023-02-24T05:16:10;3.70;99.90
21123;DHT22;10719;48.130;11.630;2023-02-24T05:18:38;3.70;99.90
21123;DHT22;10719;48.130;11.630;2023-02-24T05:21:07;3.70;99.90
21123;DHT22;10719;48.130;11.630;2023-02-24T05:23:52;3.70;99.90
21123;DHT22;10719;48.130;11.630;2023-02-24T05:26:19;3.70;99.90
21123;DHT22;10719;48.130;11.630;2023-02-24T05:28:47;3.70;99.90
21123;DHT22;10719;48.130;11.630;2023-02-24T05:31:17;3.60;99.90
21123;DHT22;10719;48.130;11.630;2023-02-24T05:33:45;3.60;99.90
21123;DHT22;10719;48.130;11.630;2023-02-24T05:36:17;3.60;99.90
21123;DHT22;10719;48.130;11.630;2023-02-24T05:38:46;3.50;99.90
21123;DHT22;10719;48.130;11.630;2023-02-24T05:41:15;3.50;99.90
21123;DHT22;10719;48.130;11.630;2023-02-24T05:43:50;3.50;99.90
21123;DHT22;10719;48.130;11.630;2023-02-24T05:46:27;3.40;99.90
21123;DHT22;10719;48.130;11.630;2023-02-24T05:48:54;3.50;99.90
21123;DHT22;10719;48.130;11.630;2023-02-24T05:51:28;3.50;99.90
21123;DHT22;10719;48.130;11.630;2023-02-24T05:54:07;3.60;99.90
21123;DHT22;10719;48.130;11.630;2023-02-24T05:56:36;3.80;99.90
21123;DHT22;10719;48.130;11.630;2023-02-24T05:59:04;3.90;99.90
21123;DHT22;10719;48.130;11.630;2023-02-24T06:01:33;4.00;99.90
21123;DHT22;10719;48.130;11.630;2023-02-24T06:04:03;4.00;99.90
21123;DHT22;10719;48.130;11.630;2023-02-24T06:06:37;4.00;99.90
21123;DHT22;10719;48.130;11.630;2023-02-24T06:09:04;4.10;99.90
21123;DHT22;10719;48.130;11.630;2023-02-24T06:11:36;4.10;99.90
21123;DHT22;10719;48.130;11.630;2023-02-24T06:14:02;4.10;99.90
21123;DHT22;10719;48.130;11.630;2023-02-24T06:16:32;4.20;99.90
21123;DHT22;10719;48.130;11.630;2023-02-24T06:18:58;4.20;99.90
21123;DHT22;10719;48.130;11.630;2023-02-24T06:21:24;4.30;99.90
21123;DHT22;10719;48.130;11.630;2023-02-24T06:23:54;4.40;99.90
21123;DHT22;10719;48.130;11.630;2023-02-24T06:26:19;4.40;99.90
21123;DHT22;10719;48.130;11.630;2023-02-24T06:28:46;4.30;99.90
21123;DHT22;10719;48.130;11.630;2023-02-24T06:31:12;4.30;99.90
21123;DHT22;10719;48.130;11.630;2023-02-24T06:33:40;4.20;99.90
21123;DHT22;10719;48.130;11.630;2023-02-24T06:36:07;4.20;99.90
21123;DHT22;10719;48.130;11.630;2023-02-24T06:38:34;4.10;99.90
21123;DHT22;10719;48.130;11.630;2023-02-24T06:41:01;4.10;99.90
21123;DHT22;10719;48.130;11.630;2023-02-24T06:43:31;4.10;99.90
21123;DHT22;10719;48.130;11.630;2023-02-24T06:45:57;4.00;99.90
21123;DHT22;10719;48.130;11.630;2023-02-24T06:48:23;4.10;99.90
21123;DHT22;10719;48.130;11.630;2023-02-24T06:50:49;4.00;99.90
21123;DHT22;10719;48.130;11.630;2023-02-24T06:53:16;4.00;99.90
21123;DHT22;10719;48.130;11.630;2023-02-24T06:55:44;4.10;99.90
21123;DHT22;10719;48.130;11.630;2023-02-24T06:58:16;4.10;99.90
21123;DHT22;10719;48.130;11.630;2023-02-24T07:00:42;4.20;99.90
21123;DHT22;10719;48.130;11.630;2023-02-24T07:03:15;4.20;99.90
21123;DHT22;10719;48.130;11.630;2023-02-24T07:05:47;4.20;99.90
21123;DHT22;10719;48.130;11.630;2023-02-24T07:08:19;4.20;99.90
21123;DHT22;10719;48.130;11.630;2023-02-24T07:10:53;4.30;99.90
21123;DHT22;10719;48.130;11.630;2023-02-24T07:13:21;4.40;99.90
21123;DHT22;10719;48.130;11.630;2023-02-24T07:15:46;4.50;99.90
21123;DHT22;10719;48.130;11.630;2023-02-24T07:18:14;4.80;99.90
21123;DHT22;10719;48.130;11.630;2023-02-24T07:20:41;5.00;99.90
21123;DHT22;10719;48.130;11.630;2023-02-24T07:23:15;5.20;99.90
21123;DHT22;10719;48.130;11.630;2023-02-24T07:25:42;5.30;99.90
21123;DHT22;10719;48.130;11.630;2023-02-24T07:28:13;5.40;99.90
21123;DHT22;10719;48.130;11.630;2023-02-24T07:30:39;5.50;99.90
21123;DHT22;10719;48.130;11.630;2023-02-24T07:33:06;5.50;99.90
21123;DHT22;10719;48.130;11.630;2023-02-24T07:35:33;5.60;99.90
21123;DHT22;10719;48.130;11.630;2023-02-24T07:38:02;5.60;99.90
21123;DHT22;10719;48.130;11.630;2023-02-24T07:40:31;5.70;99.90
21123;DHT22;10719;48.130;11.630;2023-02-24T07:43:01;5.80;99.90
21123;DHT22;10719;48.130;11.630;2023-02-24T07:45:27;6.00;99.90
21123;DHT22;10719;48.130;11.630;2023-02-24T07:47:54;6.10;99.90
21123;DHT22;10719;48.130;11.630;2023-02-24T07:50:19;6.30;99.90
21123;DHT22;10719;48.130;11.630;2023-02-24T07:52:46;6.50;99.90
21123;DHT22;10719;48.130;11.630;2023-02-24T07:55:13;6.60;99.90
21123;DHT22;10719;48.130;11.630;2023-02-24T07:57:40;6.80;99.90
21123;DHT22;10719;48.130;11.630;2023-02-24T08:00:12;6.90;99.90
21123;DHT22;10719;48.130;11.630;2023-02-24T08:02:46;7.00;99.90
21123;DHT22;10719;48.130;11.630;2023-02-24T08:05:16;6.90;99.90
21123;DHT22;10719;48.130;11.630;2023-02-24T08:07:46;7.00;99.90
21123;DHT22;10719;48.130;11.630;2023-02-24T08:10:20;7.00;99.90
21123;DHT22;10719;48.130;11.630;2023-02-24T08:12:50;7.00;99.90
21123;DHT22;10719;48.130;11.630;2023-02-24T08:15:23;7.00;99.90
21123;DHT22;10719;48.130;11.630;2023-02-24T08:17:52;7.00;99.90
21123;DHT22;10719;48.130;11.630;2023-02-24T08:20:19;7.00;99.90
21123;DHT22;10719;48.130;11.630;2023-02-24T08:22:45;7.10;99.90
21123;DHT22;10719;48.130;11.630;2023-02-24T08:25:12;7.20;99.90
21123;DHT22;10719;48.130;11.630;2023-02-24T08:27:43;7.30;99.90
21123;DHT22;10719;48.130;11.630;2023-02-24T08:30:11;7.30;99.90
21123;DHT22;10719;48.130;11.630;2023-02-24T08:32:49;7.30;99.90
21123;DHT22;10719;48.130;11.630;2023-02-24T08:35:30;7.40;99.90
21123;DHT22;10719;48.130;11.630;2023-02-24T08:38:15;7.50;99.90
21123;DHT22;10719;48.130;11.630;2023-02-24T08:40:52;7.60;99.90
21123;DHT22;10719;48.130;11.630;2023-02-24T08:43:36;7.60;99.90
21123;DHT22;10719;48.130;11.630;2023-02-24T08:46:22;7.60;99.90
21123;DHT22;10719;48.130;11.630;2023-02-24T08:48:58;7.60;99.90
21123;DHT22;10719;48.130;11.630;2023-02-24T08:51:26;7.60;99.90
21123;DHT22;10719;48.130;11.630;2023-02-24T08:53:58;7.60;99.90
21123;DHT22;10719;48.130;11.630;2023-02-24T08:56:27;7.70;99.90
21123;DHT22;10719;48.130;11.630;2023-02-24T08:58:57;7.90;99.90
21123;DHT22;10719;48.130;11.630;2023-02-24T09:01:37;7.90;99.90
21123;DHT22;10719;48.130;11.630;2023-02-24T09:04:08;7.90;99.90
21123;DHT22;10719;48.130;11.630;2023-02-24T09:06:39;8.00;99.90
21123;DHT22;10719;48.130;11.630;2023-02-24T09:09:05;8.00;99.90
21123;DHT22;10719;48.130;11.630;2023-02-24T09:11:49;8.20;99.90
21123;DHT22;10719;48.130;11.630;2023-02-24T09:14:20;8.40;99.90
21123;DHT22;10719;48.130;11.630;2023-02-24T09:16:48;8.70;99.90
21123;DHT22;10719;48.130;11.630;2023-02-24T09:22:06;9.00;99.90
21123;DHT22;10719;48.130;11.630;2023-02-24T09:24:39;9.30;99.90
21123;DHT22;10719;48.130;11.630;2023-02-24T09:27:06;9.40;99.90
21123;DHT22;10719;48.130;11.630;2023-02-24T09:29:31;9.60;99.90
21123;DHT22;10719;48.130;11.630;2023-02-24T09:32:04;9.50;99.90
21123;DHT22;10719;48.130;11.630;2023-02-24T09:34:35;9.50;99.90
21123;DHT22;10719;48.130;11.630;2023-02-24T09:37:02;9.40;99.90
21123;DHT22;10719;48.130;11.630;2023-02-24T09:39:32;9.50;99.90
21123;DHT22;10719;48.130;11.630;2023-02-24T09:42:31;9.50;99.90
21123;DHT22;10719;48.130;11.630;2023-02-24T09:45:15;9.60;99.90
21123;DHT22;10719;48.130;11.630;2023-02-24T09:47:47;9.60;99.90
21123;DHT22;10719;48.130;11.630;2023-02-24T09:50:23;9.70;99.90
21123;DHT22;10719;48.130;11.630;2023-02-24T09:53:02;10.00;99.90
21123;DHT22;10719;48.130;11.630;2023-02-24T09:56:02;10.00;99.90
21123;DHT22;10719;48.130;11.630;2023-02-24T09:58:43;10.00;99.90
21123;DHT22;10719;48.130;11.630;2023-02-24T10:07:09;10.90;99.90
21123;DHT22;10719;48.130;11.630;2023-02-24T10:17:16;11.90;99.90
21123;DHT22;10719;48.130;11.630;2023-02-24T10:19:58;12.50;99.90
21123;DHT22;10719;48.130;11.630;2023-02-24T10:22:43;14.00;99.90
21123;DHT22;10719;48.130;11.630;2023-02-24T10:25:24;15.30;99.90
21123;DHT22;10719;48.130;11.630;2023-02-24T10:33:19;13.90;99.90
21123;DHT22;10719;48.130;11.630;2023-02-24T10:35:50;13.40;99.90
21123;DHT22;10719;48.130;11.630;2023-02-24T10:38:15;13.50;99.90
21123;DHT22;10719;48.130;11.630;2023-02-24T10:40:46;12.80;99.90
21123;DHT22;10719;48.130;11.630;2023-02-24T10:43:19;12.50;99.90
21123;DHT22;10719;48.130;11.630;2023-02-24T10:45:46;12.30;99.90
21123;DHT22;10719;48.130;11.630;2023-02-24T10:48:17;12.30;99.90
21123;DHT22;10719;48.130;11.630;2023-02-24T10:50:50;12.20;99.90
21123;DHT22;10719;48.130;11.630;2023-02-24T10:53:21;12.00;99.90
21123;DHT22;10719;48.130;11.630;2023-02-24T10:56:12;11.90;99.90
21123;DHT22;10719;48.130;11.630;2023-02-24T10:59:09;11.80;99.90
21123;DHT22;10719;48.130;11.630;2023-02-24T11:02:37;11.70;99.90
21123;DHT22;10719;48.130;11.630;2023-02-24T11:05:41;11.40;99.90
21123;DHT22;10719;48.130;11.630;2023-02-24T11:08:25;11.40;99.90
21123;DHT22;10719;48.130;11.630;2023-02-24T11:11:17;11.40;99.90
21123;DHT22;10719;48.130;11.630;2023-02-24T11:13:57;11.90;99.90
21123;DHT22;10719;48.130;11.630;2023-02-24T11:16:49;12.60;99.90
21123;DHT22;10719;48.130;11.630;2023-02-24T11:19:53;13.30;99.90
21123;DHT22;10719;48.130;11.630;2023-02-24T11:22:22;13.30;99.90
21123;DHT22;10719;48.130;11.630;2023-02-24T11:24:50;13.10;99.90
21123;DHT22;10719;48.130;11.630;2023-02-24T11:27:21;12.80;99.90
21123;DHT22;10719;48.130;11.630;2023-02-24T11:30:09;12.80;99.90
21123;DHT22;10719;48.130;11.630;2023-02-24T11:40:39;11.70;99.90
21123;DHT22;10719;48.130;11.630;2023-02-24T11:43:12;11.90;99.90
21123;DHT22;10719;48.130;11.630;2023-02-24T11:45:47;11.70;99.90
21123;DHT22;10719;48.130;11.630;2023-02-24T11:48:21;11.60;99.90
21123;DHT22;10719;48.130;11.630;2023-02-24T11:50:50;11.60;99.90
21123;DHT22;10719;48.130;11.630;2023-02-24T11:55:46;11.20;99.90
21123;DHT22;10719;48.130;11.630;2023-02-24T11:58:22;11.30;99.90
21123;DHT22;10719;48.130;11.630;2023-02-24T12:01:09;11.30;99.90
21123;DHT22;10719;48.130;11.630;2023-02-24T12:03:48;11.10;99.90
21123;DHT22;10719;48.130;11.630;2023-02-24T12:06:28;11.00;99.90
21123;DHT22;10719;48.130;11.630;2023-02-24T12:08:59;11.10;99.90
21123;DHT22;10719;48.130;11.630;2023-02-24T12:14:21;11.10;99.90
21123;DHT22;10719;48.130;11.630;2023-02-24T12:16:55;10.90;99.90
21123;DHT22;10719;48.130;11.630;2023-02-24T12:19:32;10.90;99.90
21123;DHT22;10719;48.130;11.630;2023-02-24T12:22:13;10.90;99.90
21123;DHT22;10719;48.130;11.630;2023-02-24T12:24:43;10.90;99.90
21123;DHT22;10719;48.130;11.630;2023-02-24T12:39:48;10.80;99.90
21123;DHT22;10719;48.130;11.630;2023-02-24T12:47:43;10.80;99.90
21123;DHT22;10719;48.130;11.630;2023-02-24T12:50:55;10.80;99.90
21123;DHT22;10719;48.130;11.630;2023-02-24T12:58:38;10.70;99.90
21123;DHT22;10719;48.130;11.630;2023-02-24T13:01:35;10.70;99.90
21123;DHT22;10719;48.130;11.630;2023-02-24T13:07:17;10.80;99.90
21123;DHT22;10719;48.130;11.630;2023-02-24T13:10:02;10.80;99.90
21123;DHT22;10719;48.130;11.630;2023-02-24T13:12:52;10.70;99.90
21123;DHT22;10719;48.130;11.630;2023-02-24T13:15:25;10.70;99.90
21123;DHT22;10719;48.130;11.630;2023-02-24T13:17:53;10.80;99.90
21123;DHT22;10719;48.130;11.630;2023-02-24T13:20:29;10.80;99.90
21123;DHT22;10719;48.130;11.630;2023-02-24T13:22:55;10.80;99.90
21123;DHT22;10719;48.130;11.630;2023-02-24T13:25:34;10.90;99.90
21123;DHT22;10719;48.130;11.630;2023-02-24T13:28:18;10.80;99.90
21123;DHT22;10719;48.130;11.630;2023-02-24T13:30:45;11.00;99.90
21123;DHT22;10719;48.130;11.630;2023-02-24T13:35:43;11.10;99.90
21123;DHT22;10719;48.130;11.630;2023-02-24T13:38:22;11.10;99.90
21123;DHT22;10719;48.130;11.630;2023-02-24T13:40:48;11.30;99.90
21123;DHT22;10719;48.130;11.630;2023-02-24T13:43:26;11.30;99.90
21123;DHT22;10719;48.130;11.630;2023-02-24T13:46:12;11.10;99.90
21123;DHT22;10719;48.130;11.630;2023-02-24T13:48:49;11.00;99.90
21123;DHT22;10719;48.130;11.630;2023-02-24T13:54:26;10.80;99.90
21123;DHT22;10719;48.130;11.630;2023-02-24T14:00:13;10.70;99.90
21123;DHT22;10719;48.130;11.630;2023-02-24T14:02:47;10.70;99.90
21123;DHT22;10719;48.130;11.630;2023-02-24T14:05:22;10.60;99.90
21123;DHT22;10719;48.130;11.630;2023-02-24T14:07:50;10.50;99.90
21123;DHT22;10719;48.130;11.630;2023-02-24T14:10:25;10.40;99.90
21123;DHT22;10719;48.130;11.630;2023-02-24T14:13:15;10.40;99.90
21123;DHT22;10719;48.130;11.630;2023-02-24T14:15:43;10.20;99.90
21123;DHT22;10719;48.130;11.630;2023-02-24T14:18:19;10.30;99.90
21123;DHT22;10719;48.130;11.630;2023-02-24T14:20:45;10.30;99.90
21123;DHT22;10719;48.130;11.630;2023-02-24T14:23:37;10.30;99.90
21123;DHT22;10719;48.130;11.630;2023-02-24T14:26:07;10.40;99.90
21123;DHT22;10719;48.130;11.630;2023-02-24T14:28:38;10.50;99.90
21123;DHT22;10719;48.130;11.630;2023-02-24T14:31:12;10.50;99.90
21123;DHT22;10719;48.130;11.630;2023-02-24T14:33:39;10.40;99.90
21123;DHT22;10719;48.130;11.630;2023-02-24T14:36:13;10.50;99.90
21123;DHT22;10719;48.130;11.630;2023-02-24T14:38:42;10.30;99.90
21123;DHT22;10719;48.130;11.630;2023-02-24T14:41:23;10.40;99.90
21123;DHT22;10719;48.130;11.630;2023-02-24T14:43:50;10.30;99.90
21123;DHT22;10719;48.130;11.630;2023-02-24T14:46:16;10.20;99.90
21123;DHT22;10719;48.130;11.630;2023-02-24T14:48:43;10.10;99.90
21123;DHT22;10719;48.130;11.630;2023-02-24T14:53:56;9.90;99.90
21123;DHT22;10719;48.130;11.630;2023-02-24T14:56:29;9.60;99.90
21123;DHT22;10719;48.130;11.630;2023-02-24T14:59:06;9.50;99.90
21123;DHT22;10719;48.130;11.630;2023-02-24T15:01:37;9.40;99.90
21123;DHT22;10719;48.130;11.630;2023-02-24T15:06:47;9.10;99.90
21123;DHT22;10719;48.130;11.630;2023-02-24T15:09:25;9.10;99.90
21123;DHT22;10719;48.130;11.630;2023-02-24T15:11:53;9.00;99.90
21123;DHT22;10719;48.130;11.630;2023-02-24T15:14:23;9.00;99.90
21123;DHT22;10719;48.130;11.630;2023-02-24T15:16:53;8.90;99.90
21123;DHT22;10719;48.130;11.630;2023-02-24T15:19:24;8.90;99.90
21123;DHT22;10719;48.130;11.630;2023-02-24T15:21:50;8.90;99.90
21123;DHT22;10719;48.130;11.630;2023-02-24T15:24:19;8.80;99.90
21123;DHT22;10719;48.130;11.630;2023-02-24T15:26:54;8.70;99.90
21123;DHT22;10719;48.130;11.630;2023-02-24T15:29:22;8.70;99.90
21123;DHT22;10719;48.130;11.630;2023-02-24T15:31:50;8.70;99.90
21123;DHT22;10719;48.130;11.630;2023-02-24T15:34:18;8.60;99.90
21123;DHT22;10719;48.130;11.630;2023-02-24T15:36:46;8.70;99.90
21123;DHT22;10719;48.130;11.630;2023-02-24T15:39:20;8.70;99.90
21123;DHT22;10719;48.130;11.630;2023-02-24T15:41:50;8.70;99.90
21123;DHT22;10719;48.130;11.630;2023-02-24T15:44:26;8.70;99.90
21123;DHT22;10719;48.130;11.630;2023-02-24T15:46:52;8.60;99.90
21123;DHT22;10719;48.130;11.630;2023-02-24T15:49:18;8.60;99.90
21123;DHT22;10719;48.130;11.630;2023-02-24T15:51:46;8.70;99.90
21123;DHT22;10719;48.130;11.630;2023-02-24T15:54:14;8.70;99.90
21123;DHT22;10719;48.130;11.630;2023-02-24T15:56:41;8.60;99.90
21123;DHT22;10719;48.130;11.630;2023-02-24T15:59:09;8.70;99.90
21123;DHT22;10719;48.130;11.630;2023-02-24T16:01:35;8.70;99.90
21123;DHT22;10719;48.130;11.630;2023-02-24T16:04:00;8.70;99.90
21123;DHT22;10719;48.130;11.630;2023-02-24T16:06:29;8.70;99.90
21123;DHT22;10719;48.130;11.630;2023-02-24T16:08:56;8.80;99.90
21123;DHT22;10719;48.130;11.630;2023-02-24T16:11:25;8.70;99.90
21123;DHT22;10719;48.130;11.630;2023-02-24T16:13:55;8.80;99.90
21123;DHT22;10719;48.130;11.630;2023-02-24T16:16:22;8.70;99.90
21123;DHT22;10719;48.130;11.630;2023-02-24T16:18:49;8.60;99.90
21123;DHT22;10719;48.130;11.630;2023-02-24T16:21:15;8.60;99.90
21123;DHT22;10719;48.130;11.630;2023-02-24T16:23:41;8.60;99.90
21123;DHT22;10719;48.130;11.630;2023-02-24T16:26:19;8.60;99.90
21123;DHT22;10719;48.130;11.630;2023-02-24T16:28:52;8.50;99.90
21123;DHT22;10719;48.130;11.630;2023-02-24T16:31:18;8.50;99.90
21123;DHT22;10719;48.130;11.630;2023-02-24T16:33:44;8.50;99.90
21123;DHT22;10719;48.130;11.630;2023-02-24T16:36:11;8.40;99.90
21123;DHT22;10719;48.130;11.630;2023-02-24T16:38:37;8.30;99.90
21123;DHT22;10719;48.130;11.630;2023-02-24T16:41:03;8.30;99.90
21123;DHT22;10719;48.130;11.630;2023-02-24T16:43:29;8.20;99.90
21123;DHT22;10719;48.130;11.630;2023-02-24T16:46:00;8.10;99.90
21123;DHT22;10719;48.130;11.630;2023-02-24T16:48:27;8.10;99.90
21123;DHT22;10719;48.130;11.630;2023-02-24T16:50:53;8.10;99.90
21123;DHT22;10719;48.130;11.630;2023-02-24T16:53:21;8.10;99.90
21123;DHT22;10719;48.130;11.630;2023-02-24T16:55:47;8.00;99.90
21123;DHT22;10719;48.130;11.630;2023-02-24T16:58:14;8.00;99.90
21123;DHT22;10719;48.130;11.630;2023-02-24T17:00:42;7.90;99.90
21123;DHT22;10719;48.130;11.630;2023-02-24T17:03:22;7.90;99.90
21123;DHT22;10719;48.130;11.630;2023-02-24T17:05:48;7.90;99.90
21123;DHT22;10719;48.130;11.630;2023-02-24T17:08:15;7.90;99.90
21123;DHT22;10719;48.130;11.630;2023-02-24T17:10:41;7.80;99.90
21123;DHT22;10719;48.130;11.630;2023-02-24T17:13:13;7.80;99.90
21123;DHT22;10719;48.130;11.630;2023-02-24T17:15:39;7.80;99.90
21123;DHT22;10719;48.130;11.630;2023-02-24T17:18:05;7.80;99.90
21123;DHT22;10719;48.130;11.630;2023-02-24T17:20:31;7.70;99.90
21123;DHT22;10719;48.130;11.630;2023-02-24T17:22:57;7.70;99.90
21123;DHT22;10719;48.130;11.630;2023-02-24T17:25:25;7.60;99.90
21123;DHT22;10719;48.130;11.630;2023-02-24T17:27:51;7.60;99.90
21123;DHT22;10719;48.130;11.630;2023-02-24T17:30:23;7.60;99.90
21123;DHT22;10719;48.130;11.630;2023-02-24T17:32:48;7.60;99.90
21123;DHT22;10719;48.130;11.630;2023-02-24T17:35:14;7.60;99.90
21123;DHT22;10719;48.130;11.630;2023-02-24T17:37:40;7.60;99.90
21123;DHT22;10719;48.130;11.630;2023-02-24T17:40:06;7.50;99.90
21123;DHT22;10719;48.130;11.630;2023-02-24T17:42:32;7.50;99.90
21123;DHT22;10719;48.130;11.630;2023-02-24T17:44:58;7.40;99.90
21123;DHT22;10719;48.130;11.630;2023-02-24T17:47:24;7.40;99.90
21123;DHT22;10719;48.130;11.630;2023-02-24T17:49:50;7.40;99.90
21123;DHT22;10719;48.130;11.630;2023-02-24T17:52:15;7.40;99.90